Have a Safe July 4th! 

Flight Track Log - Related Links

Times and Time Zones

All times are in EDT time to prevent confusion due to time zone crossing. See the UAL405 flight status page for this flight to view local times or setup timezone preferences in your user account.

Time Position Orientation Groundspeed Altitude Reporting Facility
EDT Latitude Longitude Course Direction KTS MPH feet Rate Location/Type
Wed 08:38:38 PM 39.8333 -104.7500 281° West 188 216 6,600  Level Denver TRACON
Wed 08:39:38 PM 39.8333 -104.8333 270° West 249 287 7,800 1,800 Climbing Denver TRACON
Wed 08:40:38 PM 39.8333 -104.9333 270° West 274 315 10,200 2,565 Climbing Denver TRACON
Wed 08:41:00 PM 39.8890 -105.0895 276° West  Level FlightAware Approximate
Wed 08:41:42 PM 39.8392 -105.0400 274° West 310 357 13,100  Level Denver Center
Wed 08:42:00 PM 39.8998 -105.2311 276° West  Level FlightAware Approximate
Wed 08:42:44 PM 39.8664 -105.1606 286° West 321 369 16,500  Level Denver Center
Wed 08:43:00 PM 39.9104 -105.3721 281° West  Level FlightAware Approximate
Wed 08:43:46 PM 39.8906 -105.2806 285° West 344 396 19,100  Level Denver Center
Wed 08:44:48 PM 39.9219 -105.4197 286° West 373 429 21,800 2,274 Climbing Denver Center
Wed 08:45:50 PM 39.9508 -105.5553 286° West 390 449 23,800 1,597 Climbing Denver Center
Wed 08:46:52 PM 39.9783 -105.6997 284° West 412 474 25,100 1,279 Climbing Denver Center
Wed 08:48:06 PM 39.9708 -105.8447 266° West 395 455 26,700 1,191 Climbing Denver Center
Wed 08:49:08 PM 39.9792 -105.9933 274° West 408 470 27,800 1,016 Climbing Denver Center
Wed 08:50:10 PM 39.9900 -106.1811 274° West 432 497 28,800 1,161 Climbing Denver Center
Wed 08:51:12 PM 39.9983 -106.3369 274° West 433 498 30,200 1,452 Climbing Denver Center
Wed 08:52:14 PM 40.0517 -106.5106 292° West 432 497 31,800 1,463 Climbing Denver Center
Wed 08:53:15 PM 40.1197 -106.6453 303° West 423 487 33,200 976 Climbing Denver Center
Wed 08:54:17 PM 40.1867 -106.7633 307° West 423 487 33,800 774 Climbing Denver Center
Wed 08:55:19 PM 40.2656 -106.9036 306° West 428 493 34,800 677 Climbing Denver Center
Wed 08:56:21 PM 40.3325 -107.0247 306° West 429 494 35,200 435 Climbing Denver Center
Wed 08:57:23 PM 40.4139 -107.1697 306° West 439 505 35,700 290 Climbing Denver Center
Wed 08:58:25 PM 40.4728 -107.2750 306° West 446 513 35,800 145 Climbing Denver Center
Wed 08:59:27 PM 40.5569 -107.4278 306° West 459 528 36,000 97 Climbing Denver Center
Wed 09:00:29 PM 40.6394 -107.5792 306° West 459 528 36,000  Level Denver Center
Wed 09:01:31 PM 40.7119 -107.7100 306° West 461 531 36,000  Level Denver Center
Wed 09:02:33 PM 40.7919 -107.8547 306° West 463 533 36,000  Level Denver Center
Wed 09:03:35 PM 40.8747 -108.0081 306° West 461 531 36,000  Level Denver Center
Wed 09:04:36 PM 40.9450 -108.1394 305° West 458 527 36,000  Level Denver Center
Wed 09:05:38 PM 41.0292 -108.2925 306° West 460 529 36,000  Level Denver Center
Wed 09:06:40 PM 41.0997 -108.4233 306° West 458 527 36,000  Level Denver Center
Wed 09:07:33 PM 41.1700 -108.5583 305° West 460 529 36,000  Level Salt Lake Center
Wed 09:08:34 PM 41.2408 -108.6919 305° West 462 532 36,000  Level Salt Lake Center
Wed 09:09:35 PM 41.3111 -108.8236 305° West 458 527 36,000  Level Salt Lake Center
Wed 09:10:37 PM 41.3933 -108.9778 305° West 459 528 36,000  Level Salt Lake Center
Wed 09:11:38 PM 41.4719 -109.1300 305° West 467 537 36,000  Level Salt Lake Center
Wed 09:12:40 PM 41.5419 -109.2650 305° West 471 542 36,000 49 Level Salt Lake Center
Wed 09:13:41 PM 41.6219 -109.4203 305° West 457 526 36,100 197 Climbing Salt Lake Center
Wed 09:14:42 PM 41.6897 -109.5514 305° West 451 519 36,400 390 Climbing Salt Lake Center
Wed 09:15:44 PM 41.7550 -109.6769 305° West 434 499 36,900 683 Climbing Salt Lake Center
Wed 09:16:45 PM 41.8303 -109.8258 304° West 431 496 37,800 541 Climbing Salt Lake Center
Wed 09:17:46 PM 41.8953 -109.9519 305° West 431 496 38,000 98 Climbing Salt Lake Center
Wed 09:18:48 PM 41.9689 -110.0983 304° West 426 490 38,000  Level Salt Lake Center
Wed 09:19:49 PM 42.0319 -110.2239 304° West 423 487 38,000  Level Salt Lake Center
Wed 09:20:50 PM 42.0944 -110.3467 304° West 416 479 38,000  Level Salt Lake Center
Wed 09:21:52 PM 42.1664 -110.4900 304° West 414 476 38,000  Level Salt Lake Center
Wed 09:22:53 PM 42.2289 -110.6167 304° West 422 486 38,000  Level Salt Lake Center
Wed 09:23:54 PM 42.3033 -110.7644 304° West 426 490 38,000  Level Salt Lake Center
Wed 09:24:55 PM 42.3667 -110.8925 304° West 428 493 38,000  Level Salt Lake Center
Wed 09:25:57 PM 42.4306 -111.0247 303° West 428 493 38,000  Level Salt Lake Center
Wed 09:26:58 PM 42.4964 -111.1586 304° West 429 494 38,000  Level Salt Lake Center
Wed 09:27:59 PM 42.5617 -111.2903 304° West 424 488 38,000  Level Salt Lake Center
Wed 09:29:01 PM 42.6256 -111.4225 303° West 422 486 38,000  Level Salt Lake Center
Wed 09:30:02 PM 42.7028 -111.5817 303° West 422 486 38,000  Level Salt Lake Center
Wed 09:31:03 PM 42.7689 -111.7147 304° West 423 487 38,000  Level Salt Lake Center
Wed 09:32:05 PM 42.8308 -111.8461 303° West 427 491 38,000  Level Salt Lake Center
Wed 09:33:06 PM 42.8947 -111.9789 303° West 434 499 38,000  Level Salt Lake Center
Wed 09:34:07 PM 42.9664 -112.1322 303° West 431 496 38,000  Level Salt Lake Center
Wed 09:35:08 PM 43.0283 -112.2631 303° West 429 494 38,000  Level Salt Lake Center
Wed 09:36:10 PM 43.1008 -112.4161 303° West 429 494 38,000 49 Level Salt Lake Center
Wed 09:37:11 PM 43.1628 -112.5481 303° West 430 495 38,100 49 Climbing Salt Lake Center
Wed 09:38:12 PM 43.2225 -112.6786 302° West 425 489 38,100 -49 Level Salt Lake Center
Wed 09:39:13 PM 43.2922 -112.8261 303° West 412 474 38,000 -49 Descending Salt Lake Center
Wed 09:40:15 PM 43.3506 -112.9528 302° West 409 471 38,000 -49 Level Salt Lake Center
Wed 09:41:16 PM 43.4092 -113.0808 302° West 413 475 37,900 49 Descending Salt Lake Center
Wed 09:42:17 PM 43.4778 -113.2314 302° West 415 478 38,100 98 Climbing Salt Lake Center
Wed 09:43:18 PM 43.5361 -113.3614 302° West 415 478 38,100 -49 Level Salt Lake Center
Wed 09:44:20 PM 43.6047 -113.5117 302° West 414 476 38,000 -49 Descending Salt Lake Center
Wed 09:45:21 PM 43.6678 -113.6450 303° West 428 493 38,000  Level Salt Lake Center
Wed 09:46:22 PM 43.7239 -113.7717 302° West 411 473 38,000  Level Salt Lake Center
Wed 09:47:24 PM 43.7881 -113.9208 301° West 407 468 38,000  Level Salt Lake Center
Wed 09:48:25 PM 43.8450 -114.0508 301° West 410 472 38,000 49 Level Salt Lake Center
Wed 09:49:26 PM 43.9133 -114.2047 302° West 421 484 38,100  Climbing Salt Lake Center
Wed 09:50:28 PM 43.9714 -114.3350 302° West 416 479 38,000 -49 Descending Salt Lake Center
Wed 09:51:29 PM 44.0292 -114.4650 302° West 414 476 38,000  Level Salt Lake Center
Wed 09:52:30 PM 44.0956 -114.6186 301° West 415 478 38,000  Level Salt Lake Center
Wed 09:53:32 PM 44.1539 -114.7483 302° West 414 476 38,000  Level Salt Lake Center
Wed 09:54:33 PM 44.2094 -114.8789 301° West 412 474 38,000  Level Salt Lake Center
Wed 09:55:34 PM 44.2753 -115.0319 301° West 412 474 38,000  Level Salt Lake Center
Wed 09:56:36 PM 44.3314 -115.1650 301° West 414 476 38,000  Level Salt Lake Center
Wed 09:57:37 PM 44.3978 -115.3200 301° West 416 479 38,000  Level Salt Lake Center
Wed 09:58:39 PM 44.4539 -115.4528 301° West 416 479 38,000  Level Salt Lake Center
Wed 09:59:40 PM 44.5186 -115.6064 301° West 412 474 38,000  Level Salt Lake Center
Wed 10:00:41 PM 44.5739 -115.7375 301° West 411 473 38,000  Level Salt Lake Center
Wed 10:01:43 PM 44.6294 -115.8706 300° West 415 478 38,000  Level Salt Lake Center
Wed 10:02:44 PM 44.6931 -116.0258 300° West 415 478 38,000  Level Salt Lake Center
Wed 10:03:46 PM 44.7481 -116.1583 300° West 414 476 38,000  Level Salt Lake Center
Wed 10:04:47 PM 44.8078 -116.3158 298° West 412 474 38,000  Level Salt Lake Center
Wed 10:05:48 PM 44.8544 -116.4531 296° West 409 471 38,000  Level Salt Lake Center
Wed 10:06:50 PM 44.9108 -116.6100 297° West 405 466 38,000  Level Salt Lake Center
Wed 10:07:13 PM 44.9275 -116.6564 297° West 405 466 38,000  Level Seattle Center
Wed 10:08:14 PM 44.9758 -116.7936 297° West 409 471 38,000  Level Seattle Center
Wed 10:08:53 PM 45.0072 -116.8847 296° West 408 470 38,000  Level Salt Lake Center
Wed 10:09:54 PM 45.0633 -117.0475 296° West 412 474 38,000  Level Salt Lake Center
Wed 10:10:56 PM 45.1128 -117.1875 297° West 415 478 38,000  Level Salt Lake Center
Wed 10:11:57 PM 45.1692 -117.3522 296° West 417 480 38,000  Level Salt Lake Center
Wed 10:12:17 PM 45.1861 -117.4008 296° West 414 476 38,000  Level Seattle Center
Wed 10:13:18 PM 45.2356 -117.5475 296° West 414 476 38,000  Level Seattle Center
Wed 10:14:19 PM 45.2992 -117.6850 303° West 421 484 38,000  Level Seattle Center
Wed 10:15:20 PM 45.3644 -117.8183 305° West 415 478 38,000  Level Seattle Center
Wed 10:16:21 PM 45.4289 -117.9517 305° West 412 474 38,000  Level Seattle Center
Wed 10:17:22 PM 45.4936 -118.0856 305° West 412 474 38,000  Level Seattle Center
Wed 10:18:23 PM 45.5583 -118.2208 304° West 414 476 38,000  Level Seattle Center
Wed 10:19:23 PM 45.6239 -118.3572 305° West 417 480 38,000  Level Seattle Center
Wed 10:20:24 PM 45.6892 -118.4942 304° West 420 483 38,000  Level Seattle Center
Wed 10:21:25 PM 45.7528 -118.6300 304° West 414 476 38,000  Level Seattle Center
Wed 10:22:26 PM 45.8172 -118.7656 304° West 414 476 38,000  Level Seattle Center
Wed 10:23:27 PM 45.8806 -118.9022 304° West 413 475 38,000  Level Seattle Center
Wed 10:24:28 PM 45.9589 -119.0675 304° West 418 481 38,000  Level Seattle Center
Wed 10:25:28 PM 46.0231 -119.2053 304° West 418 481 38,000  Level Seattle Center
Wed 10:26:29 PM 46.0875 -119.3461 303° West 421 484 38,000  Level Seattle Center
Wed 10:27:30 PM 46.1514 -119.4842 304° West 420 483 38,000  Level Seattle Center
Wed 10:28:31 PM 46.2167 -119.6261 304° West 424 488 38,000  Level Seattle Center
Wed 10:29:32 PM 46.2811 -119.7672 303° West 424 488 38,000  Level Seattle Center
Wed 10:30:33 PM 46.3453 -119.9094 303° West 424 488 38,000  Level Seattle Center
Wed 10:31:33 PM 46.4092 -120.0511 303° West 424 488 38,000  Level Seattle Center
Wed 10:32:34 PM 46.4739 -120.1947 303° West 427 491 38,000  Level Seattle Center
Wed 10:33:35 PM 46.5378 -120.3389 303° West 428 493 38,000 -984 Level Seattle Center
Wed 10:34:36 PM 46.6025 -120.4797 304° West 422 486 36,000 -2,459 Descending Seattle Center
Wed 10:35:37 PM 46.6667 -120.6267 303° West 429 494 33,000 -2,876 Descending Seattle Center
Wed 10:36:37 PM 46.7422 -120.8006 302° West 427 491 30,200 -2,579 Descending Seattle Center
Wed 10:37:38 PM 46.8042 -120.9411 303° West 415 478 27,800 -2,311 Descending Seattle Center
Wed 10:38:39 PM 46.8667 -121.0794 303° West 410 472 25,500 -2,213 Descending Seattle Center
Wed 10:39:40 PM 46.9297 -121.2111 305° West 400 460 23,300 -2,066 Descending Seattle Center
Wed 10:40:41 PM 46.9906 -121.3372 305° West 383 441 21,300 -2,022 Descending Seattle Center
Wed 10:41:12 PM 47.0233 -121.4089 304° West 378 435 20,200 -1,700 Descending Seattle Center
Wed 10:41:41 PM 47.0492 -121.4661 304° West 374 430 19,600 -1,574 Descending Seattle Center
Wed 10:42:13 PM 47.0842 -121.5378 306° West 357 411 18,600 -1,770 Descending Seattle Center
Wed 10:42:42 PM 47.1078 -121.5900 304° West 357 411 17,800 -1,770 Descending Seattle Center
Wed 10:43:14 PM 47.1364 -121.6522 304° West 338 389 16,800 -1,967 Descending Seattle Center
Wed 10:43:43 PM 47.1603 -121.7064 303° West 346 398 15,800 -1,770 Descending Seattle Center
Wed 10:44:15 PM 47.1886 -121.7667 305° West 339 390 15,000 -1,475 Descending Seattle Center
Wed 10:44:44 PM 47.2122 -121.8183 304° West 334 384 14,300 -1,574 Descending Seattle Center
Wed 10:45:16 PM 47.2392 -121.8756 305° West 323 372 13,400 -1,869 Descending Seattle Center
Wed 10:45:45 PM 47.2661 -121.9339 304° West 322 371 12,400 -1,500 Descending Seattle Center
Wed 10:46:16 PM 47.2869 -121.9831 302° West 312 359 11,900 -400 Descending Seattle Center
Wed 10:46:45 PM 47.3117 -122.0356 305° West 301 346 12,000 -197 Climbing Seattle Center
Wed 10:47:17 PM 47.3317 -122.0794 304° West 252 290 11,700 -787 Descending Seattle Center
Wed 10:47:46 PM 47.3492 -122.1186 303° West 247 284 11,200 -1,082 Descending Seattle Center
Wed 10:48:18 PM 47.3708 -122.1625 306° West 237 273 10,600 -1,180 Descending Seattle Center
Wed 10:48:47 PM 47.4008 -122.1728 347° North 250 288 10,000 -1,180 Descending Seattle Center
Wed 10:49:19 PM 47.4375 -122.1714 North 248 285 9,400 -1,082 Descending Seattle Center
Wed 10:49:48 PM 47.4681 -122.1719 359° North 244 281 8,900 -1,091 Descending Seattle Center
Wed 10:50:14 PM 47.4975 -122.1708 North 243 280 8,400 -1,279 Descending Seattle Center
Wed 10:50:49 PM 47.5392 -122.1706 360° North 240 276 7,600 -1,300 Descending Seattle Center
Wed 10:51:14 PM 47.5661 -122.1692 North 240 276 7,100 -1,000 Descending Seattle Center
Wed 10:51:49 PM 47.6058 -122.1689 360° North 241 277 6,600 -885 Descending Seattle Center
Wed 10:52:15 PM 47.6306 -122.1694 359° North 237 273 6,200 -1,279 Descending Seattle Center
Wed 10:52:50 PM 47.6700 -122.1692 360° North 235 270 5,300 -1,522 Descending Seattle Center
Wed 10:53:22 PM 47.6883 -122.2128 302° West 234 269 4,500 -1,180 Descending Seattle Center
Wed 10:53:51 PM 47.6889 -122.2547 271° West 229 264 4,100 -492 Descending Seattle Center
Wed 10:54:23 PM 47.6781 -122.2944 248° West 204 235 4,000 -295 Descending Seattle Center
Wed 10:54:52 PM 47.6589 -122.3125 212° Southwest 185 213 3,800 -689 Descending Seattle Center
Wed 10:55:24 PM 47.6350 -122.3183 189° South 163 188 3,300 -938 Descending Seattle Center

Login

Don't have an account? Register now (free) for customized features, flight alerts, and more!